Latest Weather Observations for Jervois

IDD60801

Issued at 8:31 pm CST Friday 30 January 2015 (issued every 30 minutes, with the page automatically refreshed every 10 minutes)

About weather observations | Map of weather stations | Latest weather observations for NT | Other Formats
Station Details ID: 015602 Name: JERVOIS Lat: -22.95 Lon: 136.14 Height: 328.0 m
Data from the previous 72 hours. | See also: Recent months at Jervois
Date/Time
CST
Temp
°C
App
Temp
°C
Dew
Point
Rel
Hum
%
Delta-T
°C
Wind Press
QNH
hPa
Press
MSL
hPa
Rain
since 9 am
mm
Dir
 
Spd
km/h
Gust
km/h
Spd
kts
Gust
kts
30/08:30pm 30.5 28.0 6.7 22 13.0 SE 9 13 5 7 1008.1 - 0.0
30/08:00pm 31.6 29.0 6.3 20 13.8 ESE 9 11 5 6 1007.9 - 0.0
30/07:30pm 33.1 29.0 4.4 16 15.3 ESE 15 19 8 10 1007.5 - 0.0
30/07:00pm 34.1 29.6 4.1 15 16.0 ESE 17 24 9 13 1007.2 - 0.0
30/06:30pm 35.1 29.9 3.5 14 16.8 SE 20 30 11 16 1007.0 - 0.0
30/06:00pm 35.5 32.0 3.3 13 17.1 SE 11 20 6 11 1006.8 1004.3 0.0
30/05:30pm 36.0 32.5 3.7 13 17.3 S 11 19 6 10 1006.8 - 0.0
30/05:00pm 36.6 31.4 2.5 12 17.9 S 19 26 10 14 1006.9 - 0.0
30/04:30pm 35.7 31.4 3.4 13 17.2 SSE 15 24 8 13 1006.9 - 0.0
30/04:00pm 35.0 31.5 3.6 14 16.7 ESE 11 20 6 11 1007.0 - 0.0
30/03:30pm 35.6 30.9 5.0 15 16.7 ESE 19 30 10 16 1007.3 - 0.0
30/03:00pm 36.3 31.4 4.1 13 17.4 SE 19 30 10 16 1007.4 1004.9 0.0
30/02:30pm 36.0 33.0 5.9 15 16.6 SE 11 26 6 14 1007.6 - 0.0
30/02:00pm 36.9 33.7 5.1 14 17.4 SSE 11 22 6 12 1008.1 - 0.0
30/01:30pm 36.0 32.4 4.8 14 17.0 S 13 24 7 13 1008.7 - 0.0
30/01:00pm 35.9 32.2 4.6 14 17.0 S 13 22 7 12 1009.0 - 0.0
30/12:30pm 35.3 32.2 5.7 16 16.3 SE 11 24 6 13 1009.4 - 0.0
30/12:00pm 34.9 31.5 5.8 16 16.0 ESE 13 28 7 15 1009.9 1007.4 0.0
30/11:30am 34.2 29.4 4.7 16 15.9 ESE 19 26 10 14 1010.3 - 0.0
30/11:00am 33.2 30.1 7.2 20 14.5 ESE 13 24 7 13 1010.4 - 0.0
30/10:30am 32.6 29.6 7.8 21 13.9 SE 13 19 7 10 1010.7 - 0.0
30/10:00am 32.0 28.6 7.6 22 13.6 ESE 15 20 8 11 1010.8 - 0.0
30/09:30am 30.1 26.2 7.1 23 12.6 ESE 17 24 9 13 1010.9 - 0.0
30/09:00am 29.5 25.9 6.9 24 12.3 SSE 15 22 8 12 1010.8 1008.4 0.0
30/08:30am 27.8 24.2 6.8 26 11.3 S 15 20 8 11 1010.6 - 0.0
30/08:00am 26.8 24.2 7.7 29 10.4 S 11 17 6 9 1010.5 - 0.0
30/07:30am 24.7 21.5 6.7 31 9.5 S 13 17 7 9 1010.5 - 0.0
30/07:00am 23.6 20.7 6.3 32 9.0 S 11 17 6 9 1010.1 - 0.0
30/06:30am 22.4 19.5 6.7 36 8.2 SSW 11 15 6 8 1009.9 - 0.0
30/06:00am 21.7 19.3 7.2 39 7.6 SSW 9 13 5 7 1009.7 1007.2 0.0
30/05:30am 21.8 19.5 7.6 40 7.5 SSW 9 13 5 7 1009.4 - 0.0
30/05:00am 22.2 20.3 7.7 39 7.7 SSW 7 11 4 6 1009.0 - 0.0
30/04:30am 22.4 20.6 8.0 39 7.7 SSW 7 13 4 7 1008.8 - 0.0
30/04:00am 23.0 20.9 8.1 38 8.0 SSW 9 13 5 7 1008.7 - 0.0
30/03:30am 23.5 21.3 7.8 36 8.4 S 9 15 5 8 1008.7 - 0.0
30/03:00am 23.4 21.3 8.2 37 8.2 S 9 11 5 6 1008.6 1006.1 0.0
30/02:30am 23.7 22.0 8.4 37 8.3 S 7 11 4 6 1008.7 - 0.0
30/02:00am 24.6 22.1 8.2 35 8.9 S 11 15 6 8 1008.9 - 0.0
30/01:30am 25.2 22.6 7.8 33 9.4 S 11 17 6 9 1009.0 - 0.0
30/01:00am 25.5 22.8 7.5 31 9.7 S 11 15 6 8 1009.1 - 0.0
30/12:30am 26.0 23.2 6.9 29 10.2 SSW 11 17 6 9 1009.3 - 0.0
30/12:00am 25.5 23.6 7.7 32 9.6 SSW 7 11 4 6 1009.4 1006.9 0.0
 
Date/Time
CST
Temp
°C
App
Temp
°C
Dew
Point
Rel
Hum
%
Delta-T
°C
Wind Press
QNH
hPa
Press
MSL
hPa
Rain
since 9 am
mm
Dir
 
Spd
km/h
Gust
km/h
Spd
kts
Gust
kts
29/11:30pm 25.7 23.4 7.3 31 9.9 SSW 9 13 5 7 1009.6 - 0.0
29/11:00pm 25.5 23.2 7.5 31 9.7 SW 9 11 5 6 1009.6 - 0.0
29/10:30pm 25.1 23.3 7.9 33 9.3 SW 7 9 4 5 1009.4 - 0.0
29/10:00pm 26.1 25.4 8.4 32 9.7 SSW 2 6 1 3 1009.2 - 0.0
29/09:30pm 27.7 26.0 7.5 28 11.0 S 6 9 3 5 1009.1 - 0.0
29/09:00pm 28.4 26.3 6.7 25 11.7 S 7 11 4 6 1009.1 1006.5 0.0
29/08:30pm 28.9 27.0 7.6 26 11.7 S 7 9 4 5 1008.8 - 0.0
29/08:00pm 29.9 28.1 7.1 24 12.5 S 6 7 3 4 1008.6 - 0.0
29/07:30pm 31.2 27.9 4.5 18 14.1 SSE 11 15 6 8 1008.2 - 0.0
29/07:00pm 32.1 27.8 3.3 16 15.0 SE 15 22 8 12 1008.0 - 0.0
29/06:30pm 32.8 27.6 2.7 15 15.5 SE 19 32 10 17 1008.0 - 0.0
29/06:00pm 33.6 29.2 2.6 14 16.1 SSE 15 22 8 12 1007.8 1005.3 0.0
29/05:30pm 33.7 28.9 2.5 14 16.2 ESE 17 24 9 13 1007.7 - 0.0
29/05:00pm 33.9 28.5 1.4 13 16.5 SSW 19 28 10 15 1007.5 - 0.0
29/04:30pm 33.5 28.2 2.0 13 16.2 SE 19 26 10 14 1007.6 - 0.0
29/04:18pm 34.5 27.1 1.6 12 16.9 SSE 30 50 16 27 1007.5 - 0.0
29/04:00pm 33.9 28.9 3.7 15 16.0 SE 19 37 10 20 1007.5 - 0.0
29/03:30pm 33.5 27.0 2.4 14 16.1 SE 26 39 14 21 1007.7 - 0.0
29/03:00pm 34.0 29.9 2.0 13 16.5 SE 13 30 7 16 1007.8 1005.4 0.0
29/02:30pm 34.5 29.0 1.6 12 16.9 SSE 20 30 11 16 1008.2 - 0.0
29/02:00pm 33.3 27.2 0.6 12 16.4 SE 22 35 12 19 1008.6 - 0.0
29/01:30pm 33.0 28.0 1.1 13 16.1 SSE 17 28 9 15 1009.0 - 0.0
29/01:00pm 33.0 27.9 0.7 13 16.2 SSE 17 30 9 16 1009.4 - 0.0
29/12:30pm 31.8 26.4 1.4 14 15.3 S 19 37 10 20 1009.8 - 0.0
29/12:00pm 30.8 25.4 2.2 16 14.5 SE 20 33 11 18 1010.3 1007.8 0.0
29/11:30am 31.2 25.8 2.3 16 14.7 SSE 20 37 11 20 1010.6 - 0.0
29/11:00am 30.7 25.6 3.1 17 14.2 SE 19 35 10 19 1010.9 - 0.0
29/10:30am 29.8 24.6 2.2 17 13.9 SSE 19 30 10 16 1011.3 - 0.0
29/10:00am 28.2 22.4 2.4 19 12.9 SE 22 33 12 18 1011.2 - 0.0
29/09:30am 28.2 23.2 3.5 20 12.6 SE 19 30 10 16 1011.4 - 0.0
29/09:00am 26.7 21.4 2.9 21 11.9 SSE 20 33 11 18 1011.6 1009.0 0.0
29/08:30am 25.9 21.6 3.3 23 11.3 SSE 15 24 8 13 1011.4 - 0.0
29/08:00am 24.0 19.2 2.7 25 10.4 SSE 17 24 9 13 1011.3 - 0.0
29/07:30am 22.5 18.9 3.0 28 9.5 SSE 11 17 6 9 1011.4 - 0.0
29/07:00am 19.9 16.6 2.3 31 8.3 S 9 13 5 7 1011.0 - 0.0
29/06:30am 18.2 14.9 2.3 34 7.4 S 9 13 5 7 1010.6 - 0.0
29/06:00am 17.3 14.0 2.7 37 6.8 SSW 9 11 5 6 1010.3 1007.8 0.0
29/05:30am 18.1 15.1 1.8 33 7.5 SSW 7 11 4 6 1010.1 - 0.0
29/05:00am 18.5 15.5 1.8 32 7.7 SSW 7 11 4 6 1010.2 - 0.0
29/04:30am 18.9 15.4 1.5 31 8.0 SSW 9 13 5 7 1010.3 - 0.0
29/04:00am 19.1 16.1 1.9 31 8.0 S 7 11 4 6 1010.2 - 0.0
29/03:30am 19.7 16.3 1.9 30 8.3 S 9 13 5 7 1010.1 - 0.0
29/03:00am 20.3 16.8 1.3 28 8.8 S 9 13 5 7 1010.0 1007.5 0.0
29/02:30am 20.9 17.0 1.0 26 9.2 S 11 15 6 8 1009.9 - 0.0
29/02:00am 20.5 17.1 2.0 29 8.7 S 9 13 5 7 1010.0 - 0.0
29/01:30am 20.9 17.5 1.7 28 9.0 S 9 15 5 8 1010.2 - 0.0
29/01:00am 21.6 17.8 1.7 27 9.4 SSE 11 13 6 7 1010.4 - 0.0
29/12:30am 21.6 18.3 2.3 28 9.2 SSE 9 13 5 7 1010.6 - 0.0
29/12:00am 23.1 18.8 1.0 23 10.4 SSE 13 19 7 10 1010.9 1008.5 0.0
 
Date/Time
CST
Temp
°C
App
Temp
°C
Dew
Point
Rel
Hum
%
Delta-T
°C
Wind Press
QNH
hPa
Press
MSL
hPa
Rain
since 9 am
mm
Dir
 
Spd
km/h
Gust
km/h
Spd
kts
Gust
kts
28/11:30pm 23.9 19.5 0.4 21 11.0 SSE 13 17 7 9 1011.0 - 0.0
28/11:00pm 24.9 20.0 -0.6 18 11.8 SE 15 24 8 13 1010.8 - 0.0
28/10:30pm 25.4 20.5 -0.3 18 12.0 SE 15 22 8 12 1010.8 - 0.0
28/10:00pm 26.1 20.7 -1.1 16 12.6 SE 17 26 9 14 1010.6 - 0.0
28/09:30pm 26.5 21.1 -1.4 16 12.9 SE 17 24 9 13 1010.3 - 0.0
28/09:00pm 26.4 21.9 0.0 17 12.5 SE 13 17 7 9 1010.0 1007.5 0.0
28/08:30pm 27.4 22.4 -1.0 15 13.3 SE 15 19 8 10 1009.7 - 0.0
28/08:00pm 28.3 22.8 -1.8 14 14.0 SE 17 26 9 14 1009.5 - 0.0
28/07:30pm 29.0 23.9 -1.8 13 14.4 SE 15 24 8 13 1009.1 - 0.0
28/07:00pm 29.8 23.7 -2.4 12 15.0 SE 20 30 11 16 1008.7 - 0.0
28/06:30pm 30.7 23.7 -3.8 10 15.8 SSE 24 33 13 18 1008.2 - 0.0
28/06:00pm 31.5 24.6 -2.4 11 16.0 SSE 24 - 13 - - 1005.3 -
28/05:30pm 32.0 24.4 -5.2 9 16.8 SSE 26 35 14 19 1007.6 - 0.0
28/05:00pm 32.1 24.7 -3.7 10 16.5 SE 26 39 14 21 1007.5 - 0.0
28/04:30pm 32.4 25.0 -3.9 9 16.8 SSE 26 35 14 19 1007.5 - 0.0
28/04:00pm 32.2 25.3 -2.4 10 16.4 SSE 24 43 13 23 1007.5 - 0.0
28/03:30pm 32.5 25.2 -3.0 10 16.7 S 26 41 14 22 1007.8 - 0.0
28/03:00pm 31.9 25.0 -2.3 11 16.2 SSE 24 37 13 20 1008.0 1005.6 0.0
28/02:30pm 32.3 26.0 -1.1 11 16.1 S 22 41 12 22 1008.1 - 0.0
28/02:12pm 31.9 24.3 -2.3 11 16.2 SSE 28 46 15 25 1008.4 - 0.0
28/02:00pm 32.1 24.6 -1.2 11 16.1 S 28 44 15 24 1008.5 - 0.0
28/01:30pm 32.2 25.3 -2.4 10 16.4 S 24 39 13 21 1009.0 - 0.0
28/01:00pm 31.2 24.3 -2.4 11 15.8 S 24 41 13 22 1009.1 - 0.0
28/12:30pm 30.3 24.5 -1.5 12 15.1 S 19 32 10 17 1009.6 - 0.0
28/12:00pm 30.0 24.4 -0.1 14 14.6 SSE 19 33 10 18 1010.0 1007.5 0.0
28/11:30am 29.0 22.3 -1.3 14 14.3 SSE 24 35 13 19 1010.4 - 0.0
28/11:00am 28.6 22.8 0.2 16 13.7 SSE 20 33 11 18 1011.0 - 0.0
28/10:30am 28.3 22.8 1.9 18 13.1 SSE 20 32 11 17 1011.2 - 0.0
28/10:00am 27.7 21.7 1.3 18 12.9 SE 22 32 12 17 1011.2 - 0.0
28/09:30am 26.6 20.6 1.2 19 12.3 SE 22 30 12 16 1011.4 - 0.0
28/09:00am 26.1 21.3 2.4 21 11.7 SE 17 24 9 13 1011.7 1009.2 0.0
28/08:30am 25.0 21.1 3.3 24 10.8 SE 13 19 7 10 1011.4 - 0.0
28/08:00am 23.7 19.6 4.5 28 9.7 SSE 15 20 8 11 1011.4 - 0.0
28/07:30am 22.5 18.6 3.6 29 9.3 SSE 13 20 7 11 1011.3 - 0.0
28/07:00am 21.6 18.6 3.9 31 8.7 S 9 17 5 9 1011.0 - 0.0
28/06:30am 19.9 17.4 4.7 36 7.5 S 7 9 4 5 1010.7 - 0.0
28/06:00am 19.9 16.5 3.8 34 7.8 SE 11 15 6 8 1010.3 1007.8 0.0
28/05:30am 20.3 16.9 4.2 34 7.9 SSE 11 15 6 8 1009.9 - 0.0
28/05:00am 20.5 17.5 4.2 34 8.0 SSE 9 13 5 7 1009.9 - 0.0
28/04:30am 21.4 18.4 3.9 31 8.6 SE 9 13 5 7 1009.9 - 0.0
28/04:00am 21.6 19.5 5.7 35 8.1 SSE 6 7 3 4 1010.0 - 0.0
28/03:30am 22.8 19.2 3.2 27 9.6 SE 11 15 6 8 1009.7 - 0.0
28/03:00am 23.3 19.6 2.5 25 10.1 SE 11 17 6 9 1009.5 1007.0 0.0
28/02:30am 23.7 20.1 2.9 25 10.2 SE 11 17 6 9 1009.6 - 0.0
28/02:00am 24.4 20.3 2.2 23 10.8 SE 13 22 7 12 1009.7 - 0.0
28/01:30am 24.7 19.8 1.7 22 11.1 SE 17 24 9 13 1009.8 - 0.0
28/01:00am 24.2 19.8 2.5 24 10.6 SSE 15 20 8 11 1010.3 - 0.0
28/12:30am 24.3 20.6 2.6 24 10.6 SSE 11 17 6 9 1010.7 - 0.0
28/12:00am 24.7 21.0 2.4 23 10.9 SSE 11 17 6 9 1010.6 1008.1 0.0
 
Date/Time
CST
Temp
°C
App
Temp
°C
Dew
Point
Rel
Hum
%
Delta-T
°C
Wind Press
QNH
hPa
Press
MSL
hPa
Rain
since 9 am
mm
Dir
 
Spd
km/h
Gust
km/h
Spd
kts
Gust
kts
27/11:30pm 25.1 21.4 2.5 23 11.1 SSE 11 15 6 8 1010.5 - 0.0
27/11:00pm 26.1 22.3 1.7 20 11.9 S 11 17 6 9 1010.3 - 0.0
27/10:30pm 26.9 24.0 2.6 20 12.1 S 7 13 4 7 1010.3 - 0.0
27/10:00pm 27.6 24.3 2.6 20 12.5 SSE 9 13 5 7 1010.4 - 0.0
27/09:30pm 29.0 24.6 0.4 15 13.9 S 13 19 7 10 1010.2 - 0.0
27/09:00pm 29.5 25.0 -0.1 14 14.3 S 13 20 7 11 1010.0 1007.5 0.0

Other Formats:

Comma delimited format used in spreadsheet applications
http://www.bom.gov.au/fwo/IDD60801/IDD60801.94327.axf

JavaScript Object Notation format (JSON) in row-major order
http://www.bom.gov.au/fwo/IDD60801/IDD60801.94327.json